Time;durP1;ratioP1;P1;durP2;ratioP2;P2;SDS_P1;SDS_P2;PMS_P1;PMS_P2;Temp;Humidity;BMP_temperature;BMP_pressure;BME280_temperature;BME280_humidity;BME280_pressure;Samples;Min_cycle;Max_cycle;Signal;HPM_P1;HPM_P2
2023/07/18 00:00:57;;;;;;;14.45;8.32;;;12.00;99.90;;;;;;6152856;23;20346;-77
2023/07/18 00:03:28;;;;;;;12.02;8.07;;;12.00;99.90;;;;;;6127877;23;20014;-77
2023/07/18 00:05:54;;;;;;;13.02;8.80;;;12.00;99.90;;;;;;6127991;23;20025;-77
2023/07/18 00:08:20;;;;;;;24.83;13.95;;;11.90;99.90;;;;;;6173546;23;20022;-82
2023/07/18 00:10:45;;;;;;;13.70;8.38;;;12.00;99.90;;;;;;6157567;23;20345;-82
2023/07/18 00:13:11;;;;;;;16.42;9.85;;;12.00;99.90;;;;;;6157557;23;20096;-82
2023/07/18 00:15:37;;;;;;;14.82;9.50;;;12.00;99.90;;;;;;6181298;23;20040;-82
2023/07/18 00:18:03;;;;;;;14.80;10.07;;;12.00;99.90;;;;;;6138390;23;20509;-82
2023/07/18 00:20:29;;;;;;;15.18;9.35;;;12.00;99.90;;;;;;6128127;23;20018;-82
2023/07/18 00:22:55;;;;;;;11.40;8.25;;;11.90;99.90;;;;;;6152615;23;20069;-82
2023/07/18 00:25:21;;;;;;;16.27;9.35;;;11.90;99.90;;;;;;6127234;23;20092;-82
2023/07/18 00:27:53;;;;;;;13.45;8.80;;;11.90;99.90;;;;;;6127121;23;20052;-82
2023/07/18 00:30:21;;;;;;;12.18;8.50;;;11.90;99.90;;;;;;6127858;23;20024;-82
2023/07/18 00:32:47;;;;;;;14.43;9.50;;;11.90;99.90;;;;;;6128098;23;20029;-82
2023/07/18 00:35:14;;;;;;;15.40;10.75;;;11.80;99.90;;;;;;6127416;23;20005;-82
2023/07/18 00:37:40;;;;;;;16.25;11.02;;;11.80;99.90;;;;;;6127592;23;20009;-82
2023/07/18 00:40:14;;;;;;;13.50;10.15;;;11.80;99.90;;;;;;6127459;23;20096;-82
2023/07/18 00:42:45;;;;;;;13.45;9.25;;;11.80;99.90;;;;;;6152701;23;20349;-82
2023/07/18 00:45:11;;;;;;;15.38;10.43;;;11.90;99.90;;;;;;6153871;23;20098;-82
2023/07/18 00:47:40;;;;;;;18.33;11.07;;;11.80;99.90;;;;;;6154025;23;20056;-82
2023/07/18 00:50:17;;;;;;;13.55;8.60;;;11.80;99.90;;;;;;6129593;23;20014;-83
2023/07/18 00:52:48;;;;;;;13.63;10.13;;;11.80;99.90;;;;;;6129445;23;20013;-82
2023/07/18 00:55:15;;;;;;;15.93;9.68;;;11.70;99.90;;;;;;6128844;23;20017;-82
2023/07/18 00:57:42;;;;;;;10.93;9.40;;;11.80;99.90;;;;;;6129316;23;20044;-82
2023/07/18 01:00:11;;;;;;;12.32;9.25;;;11.80;99.90;;;;;;6154232;23;20512;-82
2023/07/18 01:02:42;;;;;;;14.63;9.77;;;11.80;99.90;;;;;;6129246;23;20112;-82
2023/07/18 01:05:09;;;;;;;14.80;9.63;;;11.80;99.90;;;;;;6129163;23;20327;-82
2023/07/18 01:07:35;;;;;;;21.42;13.00;;;11.80;99.90;;;;;;6128605;23;20459;-82
2023/07/18 01:10:23;;;;;;;13.95;9.45;;;11.70;99.90;;;;;;6129085;23;20009;-82
2023/07/18 01:12:50;;;;;;;14.23;9.05;;;11.70;99.90;;;;;;6129261;23;20014;-82
2023/07/18 01:15:16;;;;;;;14.02;9.85;;;11.70;99.90;;;;;;6153548;23;20446;-82
2023/07/18 01:17:44;;;;;;;13.40;10.45;;;11.70;99.90;;;;;;6129108;23;20088;-82
2023/07/18 01:20:14;;;;;;;14.15;9.35;;;11.70;99.90;;;;;;6128885;23;20021;-82
2023/07/18 01:22:40;;;;;;;13.68;10.55;;;11.70;99.90;;;;;;6129425;23;20013;-82
2023/07/18 01:25:06;;;;;;;20.17;11.60;;;11.70;99.90;;;;;;6153199;23;20021;-82
2023/07/18 01:27:32;;;;;;;18.80;11.18;;;11.70;99.90;;;;;;6128712;23;20053;-82
2023/07/18 01:29:57;;;;;;;14.50;9.95;;;11.70;99.90;;;;;;6128993;23;20049;-82
2023/07/18 01:32:23;;;;;;;16.08;10.73;;;11.80;99.90;;;;;;6128737;23;20453;-82
2023/07/18 01:34:48;;;;;;;17.60;10.75;;;11.70;99.90;;;;;;6153417;23;20032;-82
2023/07/18 01:37:15;;;;;;;15.15;10.45;;;11.70;99.90;;;;;;6153575;23;20006;-82
2023/07/18 01:39:41;;;;;;;14.48;10.18;;;11.70;99.90;;;;;;6129335;23;20013;-82
2023/07/18 01:42:07;;;;;;;15.23;10.48;;;11.70;99.90;;;;;;6128906;23;20350;-82
2023/07/18 01:44:33;;;;;;;14.50;10.15;;;11.70;99.90;;;;;;6128241;23;20017;-82
2023/07/18 01:46:59;;;;;;;14.23;10.55;;;11.70;99.90;;;;;;6153153;23;20343;-82
2023/07/18 01:49:25;;;;;;;13.63;9.88;;;11.60;99.90;;;;;;6129134;23;20010;-82
2023/07/18 01:51:50;;;;;;;17.98;12.05;;;11.60;99.90;;;;;;6128682;23;20842;-82
2023/07/18 01:54:16;;;;;;;14.80;11.00;;;11.60;99.90;;;;;;6128472;23;20009;-82
2023/07/18 01:56:42;;;;;;;16.30;10.73;;;11.60;99.90;;;;;;6153379;23;20252;-80
2023/07/18 01:59:07;;;;;;;21.15;12.68;;;11.60;99.90;;;;;;6128864;23;20013;-80
2023/07/18 02:01:33;;;;;;;12.65;9.32;;;11.50;99.90;;;;;;6128824;23;20096;-83
2023/07/18 02:03:59;;;;;;;23.38;15.07;;;11.50;99.90;;;;;;6128429;23;20060;-80
2023/07/18 02:06:25;;;;;;;19.58;12.85;;;11.50;99.90;;;;;;6128725;23;20386;-83
2023/07/18 02:08:51;;;;;;;14.25;10.20;;;11.50;99.90;;;;;;6128834;23;20462;-80
2023/07/18 02:11:17;;;;;;;16.05;10.40;;;11.40;99.90;;;;;;6128909;23;20022;-83
2023/07/18 02:13:43;;;;;;;18.52;11.13;;;11.40;99.90;;;;;;6127706;23;20349;-80
2023/07/18 02:16:08;;;;;;;26.90;15.50;;;11.40;99.90;;;;;;6152839;23;20020;-80
2023/07/18 02:18:34;;;;;;;21.83;12.88;;;11.30;99.90;;;;;;6153332;23;20323;-80
2023/07/18 02:20:59;;;;;;;32.88;17.83;;;11.30;99.90;;;;;;6128939;23;20009;-80
2023/07/18 02:23:25;;;;;;;17.67;11.82;;;11.30;99.90;;;;;;6128043;23;20017;-83
2023/07/18 02:25:51;;;;;;;27.40;17.15;;;11.30;99.90;;;;;;6128097;23;20014;-81
2023/07/18 02:28:16;;;;;;;19.17;13.07;;;11.30;99.90;;;;;;6128555;23;20460;-80
2023/07/18 02:30:42;;;;;;;22.52;12.60;;;11.30;99.90;;;;;;6128566;23;20021;-80
2023/07/18 02:33:08;;;;;;;14.20;10.55;;;11.30;99.90;;;;;;6128196;23;20585;-81
2023/07/18 02:35:33;;;;;;;20.15;13.45;;;11.30;99.90;;;;;;6127972;23;20009;-81
2023/07/18 02:37:59;;;;;;;20.48;13.05;;;11.30;99.90;;;;;;6152849;23;20338;-80
2023/07/18 02:40:25;;;;;;;18.98;12.75;;;11.30;99.90;;;;;;6153112;23;20450;-80
2023/07/18 02:42:50;;;;;;;22.60;13.50;;;11.30;99.90;;;;;;6128251;23;20013;-80
2023/07/18 02:45:16;;;;;;;17.70;11.55;;;11.30;99.90;;;;;;6127214;23;20013;-83
2023/07/18 02:47:41;;;;;;;16.70;11.35;;;11.30;99.90;;;;;;6152341;23;20156;-83
2023/07/18 02:50:08;;;;;;;16.02;10.43;;;11.30;99.90;;;;;;6128802;23;20017;-83
2023/07/18 02:52:33;;;;;;;18.35;11.55;;;11.30;99.90;;;;;;6152794;23;20009;-83
2023/07/18 02:54:59;;;;;;;20.15;11.82;;;11.30;99.90;;;;;;6128281;23;20041;-83
2023/07/18 02:57:25;;;;;;;25.75;14.43;;;11.30;99.90;;;;;;6152823;23;20005;-83
2023/07/18 02:59:50;;;;;;;15.73;11.13;;;11.30;99.90;;;;;;6153099;23;20009;-83
2023/07/18 03:02:16;;;;;;;20.70;13.05;;;11.30;99.90;;;;;;6127962;23;20442;-83
2023/07/18 03:04:42;;;;;;;18.83;13.60;;;11.30;99.90;;;;;;6127979;23;20017;-83
2023/07/18 03:07:07;;;;;;;17.52;12.43;;;11.30;99.90;;;;;;6127856;23;20442;-83
2023/07/18 03:09:34;;;;;;;21.00;13.35;;;11.40;99.90;;;;;;6128546;23;20440;-82
2023/07/18 03:12:00;;;;;;;16.48;10.73;;;11.30;99.90;;;;;;6152756;23;20010;-80
2023/07/18 03:14:26;;;;;;;14.93;11.23;;;11.30;99.90;;;;;;6127768;23;20450;-80
2023/07/18 03:16:52;;;;;;;20.05;11.77;;;11.30;99.90;;;;;;6127794;23;20006;-80
2023/07/18 03:19:17;;;;;;;20.02;12.70;;;11.30;99.90;;;;;;6128329;23;20156;-80
2023/07/18 03:21:43;;;;;;;19.63;12.77;;;11.30;99.90;;;;;;6127608;23;20017;-80
2023/07/18 03:24:09;;;;;;;24.13;12.80;;;11.40;99.90;;;;;;6127942;23;20013;-81
2023/07/18 03:26:38;;;;;;;26.38;15.02;;;11.40;99.90;;;;;;6127507;23;20016;-80
2023/07/18 03:29:06;;;;;;;17.13;13.25;;;11.40;99.90;;;;;;6128107;23;20450;-81
2023/07/18 03:31:33;;;;;;;19.52;12.13;;;11.40;99.90;;;;;;6152349;23;20041;-80
2023/07/18 03:33:59;;;;;;;25.92;14.30;;;11.40;99.90;;;;;;6152530;23;20377;-80
2023/07/18 03:36:26;;;;;;;21.52;12.90;;;11.40;99.90;;;;;;6152426;23;20041;-80
2023/07/18 03:38:51;;;;;;;15.45;11.02;;;11.40;99.90;;;;;;6127613;23;20024;-82
2023/07/18 03:41:17;;;;;;;17.60;11.65;;;11.50;99.90;;;;;;6151345;23;20014;-80
2023/07/18 03:43:42;;;;;;;18.98;13.07;;;11.40;99.90;;;;;;6151270;23;20093;-80
2023/07/18 03:46:08;;;;;;;20.88;12.68;;;11.50;99.90;;;;;;6151976;23;20014;-81
2023/07/18 03:48:34;;;;;;;19.60;13.05;;;11.50;99.90;;;;;;6152272;23;20013;-82
2023/07/18 03:51:04;;;;;;;18.83;12.40;;;11.50;99.90;;;;;;6127683;23;20020;-80
2023/07/18 03:53:30;;;;;;;20.15;11.32;;;11.50;99.90;;;;;;6151196;23;20009;-82
2023/07/18 03:56:05;;;;;;;16.52;11.93;;;11.50;99.90;;;;;;6127924;23;20382;-80
2023/07/18 03:58:30;;;;;;;19.48;12.23;;;11.60;99.90;;;;;;6152351;23;20096;-80
2023/07/18 04:00:56;;;;;;;20.58;12.07;;;11.60;99.90;;;;;;6127725;23;20013;-82
2023/07/18 04:03:22;;;;;;;18.20;12.48;;;11.60;99.90;;;;;;6151310;23;20084;-80
2023/07/18 04:05:47;;;;;;;16.40;11.15;;;11.50;99.90;;;;;;6126811;23;20081;-80
2023/07/18 04:08:13;;;;;;;18.40;11.88;;;11.70;99.90;;;;;;6152462;23;20021;-80
2023/07/18 04:10:38;;;;;;;24.17;12.45;;;11.60;99.90;;;;;;6127757;23;20480;-81
2023/07/18 04:13:04;;;;;;;14.45;10.27;;;11.60;99.90;;;;;;6152324;23;20013;-80
2023/07/18 04:15:29;;;;;;;21.08;12.07;;;11.70;99.90;;;;;;6153045;23;20088;-80
2023/07/18 04:17:55;;;;;;;15.82;9.88;;;11.70;99.90;;;;;;6153674;23;20473;-80
2023/07/18 04:20:21;;;;;;;15.68;10.10;;;11.80;99.90;;;;;;6154491;23;20049;-81
2023/07/18 04:22:47;;;;;;;20.42;11.68;;;11.80;99.90;;;;;;6154594;23;20092;-80
2023/07/18 04:25:13;;;;;;;16.83;10.40;;;11.90;99.90;;;;;;6154470;23;20049;-81
2023/07/18 04:27:38;;;;;;;14.73;9.25;;;12.00;99.90;;;;;;6153733;23;20018;-80
2023/07/18 04:30:05;;;;;;;17.05;9.32;;;12.00;99.90;;;;;;6129837;23;20021;-80
2023/07/18 04:32:30;;;;;;;13.05;8.60;;;12.10;99.90;;;;;;6154225;23;20013;-80
2023/07/18 04:34:56;;;;;;;19.60;9.57;;;12.20;99.90;;;;;;6154699;23;20013;-80
2023/07/18 04:37:22;;;;;;;16.05;10.48;;;12.20;99.90;;;;;;6154261;23;20028;-80
2023/07/18 04:39:47;;;;;;;16.83;9.95;;;12.20;99.90;;;;;;6154447;23;20017;-81
2023/07/18 04:42:13;;;;;;;20.33;10.80;;;12.30;99.90;;;;;;6128698;23;20013;-84
2023/07/18 04:44:38;;;;;;;16.95;9.23;;;12.40;99.90;;;;;;6129246;23;20013;-80
2023/07/18 04:47:04;;;;;;;14.90;8.80;;;12.40;99.90;;;;;;6152671;23;20024;-80
2023/07/18 04:49:30;;;;;;;14.52;8.38;;;12.50;99.90;;;;;;6154256;23;20104;-80
2023/07/18 04:51:56;;;;;;;15.07;7.72;;;12.60;99.90;;;;;;6154451;23;20330;-80
2023/07/18 04:54:21;;;;;;;14.52;8.68;;;12.70;99.90;;;;;;6154167;23;20009;-83
2023/07/18 04:56:47;;;;;;;15.45;9.07;;;12.90;99.90;;;;;;6153717;23;20010;-79
2023/07/18 04:59:13;;;;;;;17.60;8.68;;;13.20;99.90;;;;;;6129119;23;20458;-80
2023/07/18 05:01:40;;;;;;;12.27;7.68;;;13.50;99.90;;;;;;6129348;23;20393;-80
2023/07/18 05:04:05;;;;;;;13.73;6.82;;;13.80;99.90;;;;;;6153885;23;20068;-82
2023/07/18 05:06:31;;;;;;;12.90;7.50;;;14.10;99.90;;;;;;6128953;23;20017;-80
2023/07/18 05:08:57;;;;;;;11.35;6.05;;;14.20;99.90;;;;;;6153916;23;20350;-80
2023/07/18 05:11:22;;;;;;;10.15;6.60;;;14.10;99.90;;;;;;6153701;23;20013;-80
2023/07/18 05:13:48;;;;;;;14.52;7.40;;;14.10;99.90;;;;;;6154000;23;20032;-80
2023/07/18 05:16:14;;;;;;;10.68;6.75;;;14.10;99.90;;;;;;6153868;23;20091;-79
2023/07/18 05:18:39;;;;;;;9.18;5.88;;;14.00;99.90;;;;;;6128886;23;20017;-78
2023/07/18 05:21:05;;;;;;;12.40;6.88;;;13.90;99.90;;;;;;6128479;23;20017;-78
2023/07/18 05:23:30;;;;;;;12.77;6.53;;;13.90;99.90;;;;;;6153873;23;20366;-83
2023/07/18 05:25:57;;;;;;;11.85;6.60;;;13.80;99.90;;;;;;6129831;23;20017;-82
2023/07/18 05:28:23;;;;;;;10.88;6.43;;;13.80;99.90;;;;;;6129542;23;20018;-83
2023/07/18 05:30:49;;;;;;;11.05;6.57;;;13.70;99.90;;;;;;6129764;23;20350;-83
2023/07/18 05:33:14;;;;;;;12.52;7.22;;;14.00;99.90;;;;;;6130451;23;20021;-83
2023/07/18 05:35:40;;;;;;;9.68;6.25;;;14.40;99.90;;;;;;6130035;23;20537;-83
2023/07/18 05:38:06;;;;;;;10.95;6.00;;;15.20;99.90;;;;;;6130088;23;20010;-83
2023/07/18 05:40:32;;;;;;;14.50;6.28;;;16.00;99.90;;;;;;6129685;23;20048;-83
2023/07/18 05:42:57;;;;;;;10.77;5.18;;;16.50;99.90;;;;;;6154092;23;20017;-83
2023/07/18 05:45:23;;;;;;;10.25;5.10;;;16.70;99.90;;;;;;6154374;23;20049;-84
2023/07/18 05:47:48;;;;;;;8.35;5.10;;;16.40;99.90;;;;;;6154356;23;20021;-83
2023/07/18 05:50:14;;;;;;;9.30;5.15;;;16.30;99.90;;;;;;6129863;23;20383;-84
2023/07/18 05:52:40;;;;;;;9.63;5.18;;;16.10;99.90;;;;;;6129817;23;20010;-83
2023/07/18 05:55:07;;;;;;;10.57;4.50;;;15.90;99.90;;;;;;6129626;23;20048;-85
2023/07/18 05:57:33;;;;;;;9.18;5.30;;;15.70;99.90;;;;;;6129982;23;20009;-83
2023/07/18 05:59:58;;;;;;;11.77;5.35;;;15.80;99.90;;;;;;6129516;23;20473;-84
2023/07/18 06:02:24;;;;;;;9.13;4.45;;;15.80;99.90;;;;;;6129728;23;20023;-84
2023/07/18 06:04:50;;;;;;;8.80;4.80;;;15.90;99.90;;;;;;6154240;23;20013;-84
2023/07/18 06:07:30;;;;;;;10.73;5.07;;;15.90;99.90;;;;;;6131504;23;20032;-79
2023/07/18 06:10:51;;;;;;;;;;;;;;;;;;;;;
2023/07/18 06:17:35;;;;;;;10.15;5.50;;;15.80;99.90;;;;;;6156140;23;20346;-79
2023/07/18 06:20:13;;;;;;;8.77;4.97;;;15.80;99.90;;;;;;5986226;23;20015;-79
2023/07/18 06:22:39;;;;;;;8.52;5.30;;;16.00;99.90;;;;;;6119725;23;20025;-79
2023/07/18 06:25:25;;;;;;;8.23;5.63;;;16.10;99.90;;;;;;6131269;23;20013;-79
2023/07/18 06:27:51;;;;;;;9.60;4.75;;;16.20;99.90;;;;;;6107132;23;20017;-79
2023/07/18 06:30:17;;;;;;;8.15;5.25;;;16.20;99.90;;;;;;6131301;23;20045;-80
2023/07/18 06:32:42;;;;;;;10.55;4.75;;;16.20;99.90;;;;;;6131739;23;20064;-79
2023/07/18 06:35:10;;;;;;;9.02;5.00;;;16.20;99.90;;;;;;6107553;23;20014;-80
2023/07/18 06:37:36;;;;;;;9.45;5.28;;;16.10;99.90;;;;;;6129415;23;20394;-79
2023/07/18 06:40:02;;;;;;;11.93;5.28;;;16.30;99.90;;;;;;6130327;23;20024;-79
2023/07/18 06:42:28;;;;;;;10.02;5.82;;;16.30;99.90;;;;;;6130442;23;20037;-79
2023/07/18 06:44:54;;;;;;;9.15;5.78;;;16.50;99.90;;;;;;6106044;23;20016;-79
2023/07/18 06:47:19;;;;;;;9.27;5.43;;;16.60;99.90;;;;;;6130214;23;20344;-79
2023/07/18 06:49:45;;;;;;;10.18;5.50;;;16.60;99.90;;;;;;6130454;23;20521;-79
2023/07/18 06:52:10;;;;;;;11.35;5.47;;;16.60;99.90;;;;;;6131188;23;20017;-79
2023/07/18 06:54:36;;;;;;;10.07;5.30;;;16.60;99.90;;;;;;6106170;23;20362;-79
2023/07/18 06:57:02;;;;;;;8.90;5.40;;;16.70;99.90;;;;;;6131226;23;20010;-80
2023/07/18 06:59:27;;;;;;;11.15;4.82;;;16.80;99.90;;;;;;6129097;23;20010;-80
2023/07/18 07:01:53;;;;;;;10.27;5.60;;;16.80;99.90;;;;;;6129279;23;20385;-79
2023/07/18 07:04:19;;;;;;;10.25;5.38;;;16.90;99.90;;;;;;6130252;23;20013;-81
2023/07/18 07:06:45;;;;;;;9.65;5.72;;;16.90;99.90;;;;;;6107276;23;20170;-79
2023/07/18 07:09:13;;;;;;;11.18;5.90;;;17.00;99.90;;;;;;6105369;23;20476;-79
2023/07/18 07:11:40;;;;;;;9.45;4.93;;;17.20;99.90;;;;;;6129398;23;20021;-79
2023/07/18 07:14:06;;;;;;;8.68;5.10;;;17.20;99.90;;;;;;6128887;23;20020;-77
2023/07/18 07:16:33;;;;;;;10.13;5.00;;;17.30;99.90;;;;;;6103007;23;20021;-78
2023/07/18 07:18:59;;;;;;;10.45;4.85;;;17.40;99.90;;;;;;6126686;23;20010;-78
2023/07/18 07:21:25;;;;;;;9.55;4.60;;;17.50;99.90;;;;;;6127451;23;20092;-78
2023/07/18 07:23:50;;;;;;;10.35;4.53;;;17.50;99.90;;;;;;6127828;23;20405;-78
2023/07/18 07:26:18;;;;;;;11.13;5.10;;;17.50;99.90;;;;;;6127532;23;20040;-79
2023/07/18 07:28:44;;;;;;;11.93;5.20;;;17.60;99.90;;;;;;6102268;23;20018;-78
2023/07/18 07:31:10;;;;;;;11.68;5.40;;;17.60;99.90;;;;;;6127061;23;20017;-78
2023/07/18 07:33:35;;;;;;;10.45;5.00;;;17.70;99.90;;;;;;6127330;23;20006;-78
2023/07/18 07:36:01;;;;;;;10.35;4.95;;;17.80;99.90;;;;;;6126901;23;20014;-79
2023/07/18 07:38:27;;;;;;;10.68;5.60;;;17.90;99.90;;;;;;6103465;23;20519;-79
2023/07/18 07:40:52;;;;;;;12.20;5.88;;;18.10;99.90;;;;;;6128163;23;20067;-77
2023/07/18 07:43:18;;;;;;;10.88;5.60;;;18.10;99.90;;;;;;6127764;23;20017;-78
2023/07/18 07:45:44;;;;;;;10.20;4.68;;;18.20;99.90;;;;;;6127327;23;20025;-79
2023/07/18 07:48:09;;;;;;;12.75;5.10;;;18.30;99.90;;;;;;6129871;23;20024;-79
2023/07/18 07:50:35;;;;;;;12.45;5.20;;;18.40;99.90;;;;;;6130510;23;20374;-81
2023/07/18 07:53:01;;;;;;;13.18;4.82;;;18.60;99.90;;;;;;6104512;23;20045;-82
2023/07/18 07:55:30;;;;;;;11.93;4.60;;;19.20;99.90;;;;;;6130577;23;20055;-82
2023/07/18 07:57:55;;;;;;;13.05;5.00;;;19.90;99.90;;;;;;6130232;23;20056;-82
2023/07/18 08:00:21;;;;;;;9.48;4.22;;;20.40;99.90;;;;;;6130258;23;20021;-82
2023/07/18 08:02:46;;;;;;;12.40;4.10;;;20.90;99.90;;;;;;6103888;23;20017;-82
2023/07/18 08:05:12;;;;;;;10.00;4.80;;;21.20;99.90;;;;;;6105224;23;20009;-82
2023/07/18 08:07:39;;;;;;;12.18;4.75;;;21.60;99.90;;;;;;6131614;23;20018;-82
2023/07/18 08:10:05;;;;;;;14.15;5.45;;;22.00;99.90;;;;;;6130500;23;20017;-82
2023/07/18 08:12:31;;;;;;;10.77;4.05;;;22.60;99.90;;;;;;6154032;23;20398;-82
2023/07/18 08:14:57;;;;;;;9.35;4.13;;;23.20;99.90;;;;;;6154025;23;20016;-82
2023/07/18 08:17:22;;;;;;;10.05;3.90;;;23.80;99.90;;;;;;6129479;23;20497;-83
2023/07/18 08:19:48;;;;;;;10.98;3.70;;;24.30;99.90;;;;;;6155369;23;20014;-82
2023/07/18 08:22:13;;;;;;;8.80;3.90;;;24.70;99.90;;;;;;6129686;23;20349;-82
2023/07/18 08:24:39;;;;;;;8.20;3.28;;;24.90;99.90;;;;;;6154664;23;20100;-82
2023/07/18 08:27:25;;;;;;;9.77;3.65;;;25.30;99.90;;;;;;6152955;23;20459;-82
2023/07/18 08:30:10;;;;;;;7.93;3.03;;;25.70;99.90;;;;;;6106037;23;20053;-83
2023/07/18 08:32:38;;;;;;;10.57;3.35;;;26.30;99.90;;;;;;6105402;23;20422;-82
2023/07/18 08:35:25;;;;;;;8.50;2.90;;;26.70;99.90;;;;;;6105359;23;20088;-83
2023/07/18 08:38:01;;;;;;;9.25;3.22;;;27.00;99.90;;;;;;6095160;23;20010;-83
2023/07/18 08:40:41;;;;;;;8.93;3.33;;;27.10;99.90;;;;;;6100406;23;20104;-80
2023/07/18 08:43:22;;;;;;;8.25;2.30;;;27.20;99.90;;;;;;6121649;23;20021;-78
2023/07/18 08:45:48;;;;;;;8.35;2.63;;;27.30;99.90;;;;;;6102162;23;20018;-79
2023/07/18 08:48:13;;;;;;;6.63;2.30;;;27.30;99.90;;;;;;6101687;23;20025;-78
2023/07/18 08:50:41;;;;;;;8.80;2.25;;;27.10;99.40;;;;;;6101161;23;20029;-78
2023/07/18 08:53:06;;;;;;;9.23;2.25;;;27.10;99.90;;;;;;6102930;23;20010;-79
2023/07/18 08:55:32;;;;;;;5.78;2.10;;;27.10;99.90;;;;;;6103419;23;20013;-78
2023/07/18 08:57:59;;;;;;;5.68;1.98;;;27.30;99.90;;;;;;6102978;23;20100;-78
2023/07/18 09:00:25;;;;;;;6.32;2.10;;;27.50;99.30;;;;;;6103094;23;20024;-78
2023/07/18 09:02:50;;;;;;;4.90;1.63;;;27.50;90.80;;;;;;6080251;23;20038;-78
2023/07/18 09:05:31;;;;;;;6.47;1.70;;;27.40;76.90;;;;;;6105051;23;20637;-79
2023/07/18 09:07:58;;;;;;;7.05;1.90;;;27.30;76.10;;;;;;6104549;23;20049;-79
2023/07/18 09:10:24;;;;;;;7.85;1.80;;;27.10;74.90;;;;;;6106100;23;20021;-79
2023/07/18 09:12:50;;;;;;;5.25;1.60;;;27.00;76.90;;;;;;6105982;23;20010;-79
2023/07/18 09:15:21;;;;;;;6.57;1.63;;;27.10;92.80;;;;;;6105610;23;20018;-78
2023/07/18 09:17:52;;;;;;;5.70;1.40;;;27.50;94.60;;;;;;6105573;23;20038;-79
2023/07/18 09:20:18;;;;;;;5.05;1.38;;;27.60;91.80;;;;;;6080473;23;20014;-79
2023/07/18 09:22:44;;;;;;;5.47;1.55;;;27.60;91.60;;;;;;6108560;23;20387;-79
2023/07/18 09:25:16;;;;;;;5.30;1.50;;;27.50;91.00;;;;;;6104474;23;20010;-80
2023/07/18 09:27:42;;;;;;;5.07;1.50;;;27.50;78.70;;;;;;6103598;23;20041;-79
2023/07/18 09:30:08;;;;;;;4.30;1.55;;;27.20;73.30;;;;;;6125594;23;20443;-79
2023/07/18 09:32:34;;;;;;;5.47;1.63;;;27.10;78.40;;;;;;6125642;23;20010;-79
2023/07/18 09:35:00;;;;;;;5.40;1.50;;;26.80;80.30;;;;;;6125522;23;20006;-79
2023/07/18 09:37:26;;;;;;;5.47;1.90;;;26.60;80.60;;;;;;6124934;23;20010;-79
2023/07/18 09:39:54;;;;;;;6.80;1.80;;;26.40;89.20;;;;;;6125366;23;20094;-79
2023/07/18 09:42:21;;;;;;;5.78;1.60;;;26.40;95.90;;;;;;6125383;23;20101;-78
2023/07/18 09:44:48;;;;;;;3.65;1.40;;;26.50;98.40;;;;;;6124457;23;20036;-79
2023/07/18 09:47:15;;;;;;;5.00;1.52;;;26.60;98.30;;;;;;6125525;23;20012;-79
2023/07/18 09:49:45;;;;;;;4.93;1.50;;;26.70;95.60;;;;;;6126479;23;20012;-80
2023/07/18 09:52:11;;;;;;;4.95;1.65;;;27.00;85.20;;;;;;6126484;23;20010;-79
2023/07/18 09:54:38;;;;;;;5.15;1.60;;;27.10;99.40;;;;;;6100995;23;20017;-79
2023/07/18 09:57:09;;;;;;;5.30;1.80;;;27.40;90.10;;;;;;6125132;23;20394;-79
2023/07/18 09:59:39;;;;;;;7.00;2.00;;;27.60;94.30;;;;;;6124457;23;20378;-80
2023/07/18 10:02:06;;;;;;;4.80;1.70;;;27.80;96.50;;;;;;6125700;23;20010;-80
2023/07/18 10:04:35;;;;;;;4.72;1.70;;;28.10;93.40;;;;;;6125490;23;20025;-80
2023/07/18 10:07:02;;;;;;;7.32;1.70;;;28.10;71.70;;;;;;6125808;23;20084;-80
2023/07/18 10:09:32;;;;;;;5.53;2.00;;;28.10;77.90;;;;;;6150003;23;20056;-80
2023/07/18 10:11:57;;;;;;;3.90;1.58;;;28.30;88.60;;;;;;6124641;23;20010;-80
2023/07/18 10:14:26;;;;;;;5.32;1.85;;;28.50;73.40;;;;;;6123665;23;20088;-79
2023/07/18 10:16:59;;;;;;;3.92;1.73;;;28.60;69.80;;;;;;6123808;23;20442;-79
2023/07/18 10:19:25;;;;;;;3.25;1.25;;;28.30;65.50;;;;;;6125521;23;20042;-79
2023/07/18 10:21:56;;;;;;;4.57;1.55;;;28.20;64.70;;;;;;6102092;23;20014;-79
2023/07/18 10:24:26;;;;;;;3.97;1.63;;;27.90;64.40;;;;;;6125147;23;20052;-79
2023/07/18 10:27:00;;;;;;;4.10;1.13;;;27.80;67.80;;;;;;6123717;23;20064;-78
2023/07/18 10:29:31;;;;;;;3.47;1.30;;;27.90;69.00;;;;;;6124458;23;20010;-79
2023/07/18 10:31:59;;;;;;;2.30;0.80;;;28.20;73.60;;;;;;6124760;23;20040;-79
2023/07/18 10:34:25;;;;;;;3.08;0.80;;;28.30;66.60;;;;;;6102204;23;20013;-79
2023/07/18 10:36:55;;;;;;;2.80;0.85;;;28.50;68.40;;;;;;6102317;23;20323;-79
2023/07/18 10:39:41;;;;;;;2.05;0.80;;;28.60;63.60;;;;;;6151190;23;20010;-79
2023/07/18 10:42:17;;;;;;;3.17;0.90;;;28.60;62.70;;;;;;6125089;23;20060;-80
2023/07/18 10:44:43;;;;;;;2.55;0.90;;;28.50;61.40;;;;;;6125314;23;20249;-79
2023/07/18 10:47:14;;;;;;;2.67;0.90;;;28.50;58.50;;;;;;6123271;23;20014;-77
2023/07/18 10:49:40;;;;;;;3.30;0.75;;;28.50;58.80;;;;;;6122217;23;20018;-78
2023/07/18 10:52:06;;;;;;;2.90;1.05;;;28.40;59.60;;;;;;6122753;23;20010;-78
2023/07/18 10:54:32;;;;;;;2.05;0.90;;;28.40;60.80;;;;;;6099442;23;20064;-78
2023/07/18 10:56:58;;;;;;;2.13;0.77;;;28.50;61.80;;;;;;6122264;23;20014;-78
2023/07/18 10:59:24;;;;;;;2.95;0.82;;;28.60;60.50;;;;;;6123536;23;20014;-78
2023/07/18 11:01:49;;;;;;;4.70;0.90;;;28.70;61.30;;;;;;6147238;23;20014;-79
2023/07/18 11:04:15;;;;;;;3.53;1.10;;;28.60;58.60;;;;;;6123771;23;20084;-79
2023/07/18 11:06:55;;;;;;;2.90;1.08;;;28.40;60.20;;;;;;6123596;23;20096;-79
2023/07/18 11:09:20;;;;;;;2.72;1.13;;;28.50;58.80;;;;;;6148510;23;20014;-78
2023/07/18 11:11:47;;;;;;;3.17;1.25;;;28.70;60.50;;;;;;6122243;23;20399;-78
2023/07/18 11:14:12;;;;;;;2.25;0.90;;;28.80;58.30;;;;;;6147977;23;20468;-78
2023/07/18 11:16:38;;;;;;;4.50;0.90;;;29.00;59.80;;;;;;6147802;23;20010;-78
2023/07/18 11:19:07;;;;;;;1.98;0.90;;;28.90;56.60;;;;;;6122844;23;20009;-78
2023/07/18 11:21:35;;;;;;;2.95;1.10;;;29.10;60.80;;;;;;6145630;23;20151;-78
2023/07/18 11:24:01;;;;;;;4.07;1.13;;;29.50;60.80;;;;;;6097572;23;20014;-78
2023/07/18 11:26:27;;;;;;;2.10;0.90;;;29.80;58.50;;;;;;6145367;23;20437;-78
2023/07/18 11:28:53;;;;;;;2.75;0.90;;;30.10;57.90;;;;;;6123072;23;20463;-79
2023/07/18 11:31:19;;;;;;;2.45;0.80;;;30.20;60.90;;;;;;6122622;23;20056;-79
2023/07/18 11:33:49;;;;;;;2.28;0.60;;;30.30;57.10;;;;;;6123088;23;20014;-78
2023/07/18 11:36:15;;;;;;;2.83;0.90;;;30.40;59.20;;;;;;6098740;23;20049;-79
2023/07/18 11:38:40;;;;;;;3.67;1.10;;;30.60;58.80;;;;;;6147789;23;20592;-79
2023/07/18 11:41:32;;;;;;;3.05;0.93;;;30.70;57.50;;;;;;6122094;23;20014;-78
2023/07/18 11:43:59;;;;;;;3.58;1.10;;;30.80;58.30;;;;;;6122353;23;20092;-79
2023/07/18 11:46:35;;;;;;;2.05;0.80;;;30.90;57.40;;;;;;6122943;23;20064;-79
2023/07/18 11:49:01;;;;;;;2.17;0.90;;;30.90;57.80;;;;;;6122098;23;20018;-78
2023/07/18 11:51:27;;;;;;;1.80;0.82;;;31.00;54.40;;;;;;6122429;23;20454;-78
2023/07/18 11:53:53;;;;;;;2.95;0.90;;;31.10;55.30;;;;;;6123264;23;20068;-78
2023/07/18 11:56:20;;;;;;;3.45;1.00;;;31.10;54.70;;;;;;6122338;23;20014;-78
2023/07/18 11:58:45;;;;;;;2.13;0.90;;;31.10;55.20;;;;;;6122962;23;20016;-79
2023/07/18 12:01:11;;;;;;;3.05;1.00;;;31.00;55.00;;;;;;6123649;23;20017;-80
2023/07/18 12:03:37;;;;;;;4.55;1.02;;;30.70;56.90;;;;;;6105906;23;20010;-80
2023/07/18 12:06:02;;;;;;;2.95;1.15;;;30.60;57.40;;;;;;6129096;23;20029;-80
2023/07/18 12:08:28;;;;;;;5.97;1.02;;;30.50;58.00;;;;;;6128040;23;20411;-80
2023/07/18 12:10:53;;;;;;;3.65;1.02;;;30.60;56.60;;;;;;6102299;23;20020;-79
2023/07/18 12:13:19;;;;;;;2.42;1.05;;;30.70;55.70;;;;;;6151896;23;20014;-79
2023/07/18 12:15:45;;;;;;;5.03;1.10;;;30.70;55.60;;;;;;6126473;23;20017;-80
2023/07/18 12:18:14;;;;;;;3.78;0.82;;;30.60;55.60;;;;;;6151528;23;20033;-80
2023/07/18 12:20:39;;;;;;;5.25;1.10;;;30.60;56.40;;;;;;6150300;23;20395;-80
2023/07/18 12:23:05;;;;;;;2.42;0.80;;;30.80;58.30;;;;;;6128561;23;20025;-80
2023/07/18 12:25:31;;;;;;;3.20;1.00;;;30.90;55.80;;;;;;6128422;23;20018;-80
2023/07/18 12:28:01;;;;;;;7.30;1.27;;;31.10;55.60;;;;;;6129970;23;20080;-80
2023/07/18 12:30:27;;;;;;;4.18;1.00;;;31.20;56.50;;;;;;6131615;23;20098;-80
2023/07/18 12:32:53;;;;;;;14.75;1.52;;;31.30;55.30;;;;;;6130874;23;20013;-80
2023/07/18 12:35:19;;;;;;;5.75;1.20;;;31.10;55.90;;;;;;6131157;23;20065;-80
2023/07/18 12:37:46;;;;;;;3.97;1.10;;;30.80;56.40;;;;;;6134157;23;20041;-79
2023/07/18 12:40:12;;;;;;;3.28;1.25;;;30.40;54.30;;;;;;6108372;23;20025;-79
2023/07/18 12:42:38;;;;;;;3.28;1.45;;;30.00;55.90;;;;;;6106317;23;20013;-80
2023/07/18 12:45:04;;;;;;;4.32;1.80;;;29.70;56.80;;;;;;6130625;23;20021;-78